sensor_id;sensor_type;location;lat;lon;timestamp;P1;durP1;ratioP1;P2;durP2;ratioP2
9827;SDS011;4953;48.952;9.442;2022-08-19T04:01:34;24.23;;;20.43;;
9827;SDS011;4953;48.952;9.442;2022-08-19T04:04:01;30.50;;;20.83;;
9827;SDS011;4953;48.952;9.442;2022-08-19T04:06:29;23.37;;;19.50;;
9827;SDS011;4953;48.952;9.442;2022-08-19T04:08:58;23.63;;;19.53;;
9827;SDS011;4953;48.952;9.442;2022-08-19T04:11:27;28.17;;;21.03;;
9827;SDS011;4953;48.952;9.442;2022-08-19T04:13:56;27.23;;;21.00;;
9827;SDS011;4953;48.952;9.442;2022-08-19T04:16:24;23.30;;;19.60;;
9827;SDS011;4953;48.952;9.442;2022-08-19T04:18:55;25.10;;;21.03;;
9827;SDS011;4953;48.952;9.442;2022-08-19T04:21:23;27.73;;;21.03;;
9827;SDS011;4953;48.952;9.442;2022-08-19T04:23:51;24.40;;;19.60;;
9827;SDS011;4953;48.952;9.442;2022-08-19T04:26:20;30.07;;;20.70;;
9827;SDS011;4953;48.952;9.442;2022-08-19T04:28:49;26.07;;;19.50;;
9827;SDS011;4953;48.952;9.442;2022-08-19T04:31:17;27.43;;;21.13;;
9827;SDS011;4953;48.952;9.442;2022-08-19T04:33:45;25.03;;;19.60;;
9827;SDS011;4953;48.952;9.442;2022-08-19T04:36:16;25.10;;;19.63;;
9827;SDS011;4953;48.952;9.442;2022-08-19T04:38:45;23.60;;;18.90;;
9827;SDS011;4953;48.952;9.442;2022-08-19T04:41:12;26.77;;;21.00;;
9827;SDS011;4953;48.952;9.442;2022-08-19T04:43:56;28.53;;;22.30;;
9827;SDS011;4953;48.952;9.442;2022-08-19T04:46:23;27.50;;;20.93;;
9827;SDS011;4953;48.952;9.442;2022-08-19T04:48:50;28.67;;;21.20;;
9827;SDS011;4953;48.952;9.442;2022-08-19T04:51:19;28.50;;;22.60;;
9827;SDS011;4953;48.952;9.442;2022-08-19T04:53:46;27.33;;;21.00;;
9827;SDS011;4953;48.952;9.442;2022-08-19T04:56:14;30.13;;;23.70;;
9827;SDS011;4953;48.952;9.442;2022-08-19T04:58:42;28.40;;;22.23;;
9827;SDS011;4953;48.952;9.442;2022-08-19T05:01:11;26.70;;;19.83;;
9827;SDS011;4953;48.952;9.442;2022-08-19T05:03:39;28.07;;;21.50;;
9827;SDS011;4953;48.952;9.442;2022-08-19T05:06:06;26.57;;;21.20;;
9827;SDS011;4953;48.952;9.442;2022-08-19T05:08:37;25.87;;;20.87;;
9827;SDS011;4953;48.952;9.442;2022-08-19T05:11:07;35.30;;;21.40;;
9827;SDS011;4953;48.952;9.442;2022-08-19T05:13:36;29.30;;;21.70;;
9827;SDS011;4953;48.952;9.442;2022-08-19T05:16:03;33.33;;;23.60;;
9827;SDS011;4953;48.952;9.442;2022-08-19T05:18:31;30.00;;;21.23;;
9827;SDS011;4953;48.952;9.442;2022-08-19T05:21:17;30.33;;;22.40;;
9827;SDS011;4953;48.952;9.442;2022-08-19T05:24:05;28.80;;;21.60;;
9827;SDS011;4953;48.952;9.442;2022-08-19T05:26:33;27.90;;;21.80;;
9827;SDS011;4953;48.952;9.442;2022-08-19T05:29:00;29.43;;;21.53;;
9827;SDS011;4953;48.952;9.442;2022-08-19T05:31:28;27.90;;;21.60;;
9827;SDS011;4953;48.952;9.442;2022-08-19T05:33:55;27.60;;;21.77;;
9827;SDS011;4953;48.952;9.442;2022-08-19T05:36:23;29.23;;;22.27;;
9827;SDS011;4953;48.952;9.442;2022-08-19T05:38:50;27.97;;;21.70;;
9827;SDS011;4953;48.952;9.442;2022-08-19T05:41:19;26.77;;;20.80;;
9827;SDS011;4953;48.952;9.442;2022-08-19T05:43:54;29.80;;;21.93;;
9827;SDS011;4953;48.952;9.442;2022-08-19T05:46:21;29.13;;;21.67;;
9827;SDS011;4953;48.952;9.442;2022-08-19T05:48:49;29.77;;;22.17;;
9827;SDS011;4953;48.952;9.442;2022-08-19T05:51:16;26.20;;;21.73;;
9827;SDS011;4953;48.952;9.442;2022-08-19T05:53:43;29.10;;;21.67;;
9827;SDS011;4953;48.952;9.442;2022-08-19T05:56:11;26.47;;;21.40;;
9827;SDS011;4953;48.952;9.442;2022-08-19T05:58:41;32.90;;;23.30;;
9827;SDS011;4953;48.952;9.442;2022-08-19T06:01:10;29.97;;;22.20;;
9827;SDS011;4953;48.952;9.442;2022-08-19T06:03:39;26.80;;;20.93;;
9827;SDS011;4953;48.952;9.442;2022-08-19T06:06:07;27.30;;;21.77;;
9827;SDS011;4953;48.952;9.442;2022-08-19T06:08:36;31.93;;;22.30;;
9827;SDS011;4953;48.952;9.442;2022-08-19T06:11:16;29.47;;;22.70;;
9827;SDS011;4953;48.952;9.442;2022-08-19T06:13:47;31.47;;;22.83;;
9827;SDS011;4953;48.952;9.442;2022-08-19T06:16:16;26.93;;;21.00;;
9827;SDS011;4953;48.952;9.442;2022-08-19T06:18:47;31.83;;;22.17;;
9827;SDS011;4953;48.952;9.442;2022-08-19T06:21:16;29.00;;;22.27;;
9827;SDS011;4953;48.952;9.442;2022-08-19T06:23:43;29.00;;;22.13;;
9827;SDS011;4953;48.952;9.442;2022-08-19T06:26:12;30.63;;;22.23;;
9827;SDS011;4953;48.952;9.442;2022-08-19T06:28:39;28.17;;;22.07;;
9827;SDS011;4953;48.952;9.442;2022-08-19T06:31:09;32.20;;;22.30;;
9827;SDS011;4953;48.952;9.442;2022-08-19T06:33:36;30.60;;;23.60;;
9827;SDS011;4953;48.952;9.442;2022-08-19T06:36:04;34.70;;;23.20;;
9827;SDS011;4953;48.952;9.442;2022-08-19T06:38:31;32.03;;;23.07;;
9827;SDS011;4953;48.952;9.442;2022-08-19T06:41:00;33.50;;;22.13;;
9827;SDS011;4953;48.952;9.442;2022-08-19T06:43:27;35.53;;;22.37;;
9827;SDS011;4953;48.952;9.442;2022-08-19T06:45:54;29.57;;;23.10;;
9827;SDS011;4953;48.952;9.442;2022-08-19T06:48:22;32.13;;;23.50;;
9827;SDS011;4953;48.952;9.442;2022-08-19T06:50:50;33.57;;;23.20;;
9827;SDS011;4953;48.952;9.442;2022-08-19T06:53:16;29.57;;;23.13;;
9827;SDS011;4953;48.952;9.442;2022-08-19T06:55:44;35.23;;;23.80;;
9827;SDS011;4953;48.952;9.442;2022-08-19T06:58:10;35.93;;;24.43;;
9827;SDS011;4953;48.952;9.442;2022-08-19T07:00:37;32.33;;;24.70;;
9827;SDS011;4953;48.952;9.442;2022-08-19T07:03:05;35.10;;;24.30;;
9827;SDS011;4953;48.952;9.442;2022-08-19T07:05:33;36.47;;;25.27;;
9827;SDS011;4953;48.952;9.442;2022-08-19T07:08:04;33.07;;;24.27;;
9827;SDS011;4953;48.952;9.442;2022-08-19T07:10:32;33.07;;;24.67;;
9827;SDS011;4953;48.952;9.442;2022-08-19T07:13:01;32.53;;;23.90;;
9827;SDS011;4953;48.952;9.442;2022-08-19T07:15:28;31.03;;;23.37;;
9827;SDS011;4953;48.952;9.442;2022-08-19T07:17:55;32.20;;;22.70;;
9827;SDS011;4953;48.952;9.442;2022-08-19T07:20:22;30.17;;;24.17;;
9827;SDS011;4953;48.952;9.442;2022-08-19T07:22:50;32.17;;;24.37;;
9827;SDS011;4953;48.952;9.442;2022-08-19T07:25:17;29.40;;;23.60;;
9827;SDS011;4953;48.952;9.442;2022-08-19T07:27:48;36.87;;;25.27;;
9827;SDS011;4953;48.952;9.442;2022-08-19T07:30:15;34.17;;;26.00;;
9827;SDS011;4953;48.952;9.442;2022-08-19T07:32:42;32.50;;;24.80;;
9827;SDS011;4953;48.952;9.442;2022-08-19T07:35:09;36.27;;;25.30;;
9827;SDS011;4953;48.952;9.442;2022-08-19T07:37:36;36.87;;;25.83;;
9827;SDS011;4953;48.952;9.442;2022-08-19T07:40:06;33.53;;;25.53;;
9827;SDS011;4953;48.952;9.442;2022-08-19T07:42:33;36.10;;;25.80;;
9827;SDS011;4953;48.952;9.442;2022-08-19T07:45:00;40.10;;;26.10;;
9827;SDS011;4953;48.952;9.442;2022-08-19T07:47:27;43.70;;;27.40;;
9827;SDS011;4953;48.952;9.442;2022-08-19T07:49:55;34.80;;;26.43;;
9827;SDS011;4953;48.952;9.442;2022-08-19T07:52:22;37.00;;;26.40;;
9827;SDS011;4953;48.952;9.442;2022-08-19T07:54:49;34.97;;;27.60;;
9827;SDS011;4953;48.952;9.442;2022-08-19T07:57:17;31.20;;;25.30;;
9827;SDS011;4953;48.952;9.442;2022-08-19T07:59:44;36.87;;;26.80;;
9827;SDS011;4953;48.952;9.442;2022-08-19T08:02:11;38.37;;;27.13;;
9827;SDS011;4953;48.952;9.442;2022-08-19T08:04:38;35.10;;;27.40;;
9827;SDS011;4953;48.952;9.442;2022-08-19T08:07:22;40.03;;;27.40;;
9827;SDS011;4953;48.952;9.442;2022-08-19T08:10:06;35.87;;;25.13;;
9827;SDS011;4953;48.952;9.442;2022-08-19T08:12:36;31.37;;;24.90;;
9827;SDS011;4953;48.952;9.442;2022-08-19T08:15:07;33.03;;;25.77;;
9827;SDS011;4953;48.952;9.442;2022-08-19T08:17:36;31.90;;;25.07;;
9827;SDS011;4953;48.952;9.442;2022-08-19T08:20:05;32.13;;;25.43;;
9827;SDS011;4953;48.952;9.442;2022-08-19T08:22:32;33.70;;;25.87;;
9827;SDS011;4953;48.952;9.442;2022-08-19T08:25:18;30.93;;;23.43;;
9827;SDS011;4953;48.952;9.442;2022-08-19T08:27:47;39.67;;;24.27;;
9827;SDS011;4953;48.952;9.442;2022-08-19T08:30:16;31.33;;;22.97;;
9827;SDS011;4953;48.952;9.442;2022-08-19T08:32:45;44.23;;;23.90;;
9827;SDS011;4953;48.952;9.442;2022-08-19T08:35:13;34.63;;;23.97;;
9827;SDS011;4953;48.952;9.442;2022-08-19T08:37:42;31.73;;;22.70;;
9827;SDS011;4953;48.952;9.442;2022-08-19T08:40:14;29.50;;;22.80;;
9827;SDS011;4953;48.952;9.442;2022-08-19T08:42:49;31.67;;;22.47;;
9827;SDS011;4953;48.952;9.442;2022-08-19T08:45:23;31.33;;;23.67;;
9827;SDS011;4953;48.952;9.442;2022-08-19T08:47:51;33.30;;;24.53;;
9827;SDS011;4953;48.952;9.442;2022-08-19T08:50:23;29.03;;;22.03;;
9827;SDS011;4953;48.952;9.442;2022-08-19T08:53:01;31.10;;;23.40;;
9827;SDS011;4953;48.952;9.442;2022-08-19T08:55:30;29.60;;;22.33;;
9827;SDS011;4953;48.952;9.442;2022-08-19T08:58:00;31.20;;;21.40;;
9827;SDS011;4953;48.952;9.442;2022-08-19T09:00:32;33.43;;;23.50;;
9827;SDS011;4953;48.952;9.442;2022-08-19T09:03:01;28.67;;;21.97;;
9827;SDS011;4953;48.952;9.442;2022-08-19T09:05:31;34.03;;;23.70;;
9827;SDS011;4953;48.952;9.442;2022-08-19T09:08:08;31.93;;;25.23;;
9827;SDS011;4953;48.952;9.442;2022-08-19T09:10:43;37.03;;;26.20;;
9827;SDS011;4953;48.952;9.442;2022-08-19T09:13:17;33.00;;;24.07;;
9827;SDS011;4953;48.952;9.442;2022-08-19T09:15:52;35.67;;;24.53;;
9827;SDS011;4953;48.952;9.442;2022-08-19T09:18:23;29.60;;;23.63;;
9827;SDS011;4953;48.952;9.442;2022-08-19T09:20:50;29.20;;;23.00;;
9827;SDS011;4953;48.952;9.442;2022-08-19T09:23:17;28.03;;;22.60;;
9827;SDS011;4953;48.952;9.442;2022-08-19T09:25:44;34.70;;;24.33;;
9827;SDS011;4953;48.952;9.442;2022-08-19T09:28:11;32.00;;;25.03;;
9827;SDS011;4953;48.952;9.442;2022-08-19T09:30:40;35.60;;;25.50;;
9827;SDS011;4953;48.952;9.442;2022-08-19T09:33:07;29.97;;;23.70;;
9827;SDS011;4953;48.952;9.442;2022-08-19T09:35:34;31.47;;;22.80;;
9827;SDS011;4953;48.952;9.442;2022-08-19T09:38:01;32.07;;;24.57;;
9827;SDS011;4953;48.952;9.442;2022-08-19T09:40:28;32.23;;;23.77;;
9827;SDS011;4953;48.952;9.442;2022-08-19T09:42:56;31.90;;;23.90;;
9827;SDS011;4953;48.952;9.442;2022-08-19T09:45:27;31.80;;;24.57;;
9827;SDS011;4953;48.952;9.442;2022-08-19T09:47:56;32.80;;;24.00;;
9827;SDS011;4953;48.952;9.442;2022-08-19T09:50:23;32.43;;;25.43;;
9827;SDS011;4953;48.952;9.442;2022-08-19T09:52:50;31.43;;;26.10;;
9827;SDS011;4953;48.952;9.442;2022-08-19T09:55:21;32.20;;;24.97;;
9827;SDS011;4953;48.952;9.442;2022-08-19T09:57:48;31.10;;;24.03;;
9827;SDS011;4953;48.952;9.442;2022-08-19T10:00:15;30.60;;;22.90;;
9827;SDS011;4953;48.952;9.442;2022-08-19T10:02:42;31.50;;;24.57;;
9827;SDS011;4953;48.952;9.442;2022-08-19T10:05:10;30.70;;;25.40;;
9827;SDS011;4953;48.952;9.442;2022-08-19T10:07:54;30.57;;;25.50;;
9827;SDS011;4953;48.952;9.442;2022-08-19T10:10:21;36.43;;;28.00;;
9827;SDS011;4953;48.952;9.442;2022-08-19T10:12:49;34.13;;;24.37;;
9827;SDS011;4953;48.952;9.442;2022-08-19T10:15:15;38.90;;;25.70;;
9827;SDS011;4953;48.952;9.442;2022-08-19T10:17:46;35.10;;;27.60;;
9827;SDS011;4953;48.952;9.442;2022-08-19T10:20:14;33.70;;;25.63;;
9827;SDS011;4953;48.952;9.442;2022-08-19T10:22:41;37.47;;;28.40;;
9827;SDS011;4953;48.952;9.442;2022-08-19T10:25:08;36.20;;;26.53;;
9827;SDS011;4953;48.952;9.442;2022-08-19T10:27:36;31.73;;;24.50;;
9827;SDS011;4953;48.952;9.442;2022-08-19T10:30:03;38.20;;;26.87;;
9827;SDS011;4953;48.952;9.442;2022-08-19T10:32:31;36.97;;;27.80;;
9827;SDS011;4953;48.952;9.442;2022-08-19T10:34:58;37.40;;;27.13;;
9827;SDS011;4953;48.952;9.442;2022-08-19T10:37:27;33.43;;;23.97;;
9827;SDS011;4953;48.952;9.442;2022-08-19T10:39:55;32.97;;;26.80;;
9827;SDS011;4953;48.952;9.442;2022-08-19T10:42:22;33.87;;;26.60;;
9827;SDS011;4953;48.952;9.442;2022-08-19T10:44:49;35.90;;;25.63;;
9827;SDS011;4953;48.952;9.442;2022-08-19T10:47:16;33.70;;;26.00;;
9827;SDS011;4953;48.952;9.442;2022-08-19T10:49:42;29.87;;;25.17;;
9827;SDS011;4953;48.952;9.442;2022-08-19T10:52:33;30.53;;;23.47;;
9827;SDS011;4953;48.952;9.442;2022-08-19T10:55:01;32.13;;;25.83;;
9827;SDS011;4953;48.952;9.442;2022-08-19T10:57:47;33.50;;;26.43;;
9827;SDS011;4953;48.952;9.442;2022-08-19T11:00:14;33.80;;;26.87;;
9827;SDS011;4953;48.952;9.442;2022-08-19T11:02:42;33.37;;;25.57;;
9827;SDS011;4953;48.952;9.442;2022-08-19T11:05:09;34.30;;;26.33;;
9827;SDS011;4953;48.952;9.442;2022-08-19T11:07:38;30.83;;;24.17;;
9827;SDS011;4953;48.952;9.442;2022-08-19T11:10:05;33.53;;;25.80;;
9827;SDS011;4953;48.952;9.442;2022-08-19T11:12:36;35.63;;;27.20;;
9827;SDS011;4953;48.952;9.442;2022-08-19T11:15:04;36.73;;;26.50;;
9827;SDS011;4953;48.952;9.442;2022-08-19T11:17:33;38.00;;;29.80;;
9827;SDS011;4953;48.952;9.442;2022-08-19T11:20:02;37.43;;;28.63;;
9827;SDS011;4953;48.952;9.442;2022-08-19T11:22:30;40.23;;;28.10;;
9827;SDS011;4953;48.952;9.442;2022-08-19T11:24:58;36.73;;;26.83;;
9827;SDS011;4953;48.952;9.442;2022-08-19T11:27:25;35.53;;;28.40;;
9827;SDS011;4953;48.952;9.442;2022-08-19T11:29:54;36.57;;;29.80;;
9827;SDS011;4953;48.952;9.442;2022-08-19T11:32:21;36.50;;;28.70;;
9827;SDS011;4953;48.952;9.442;2022-08-19T11:34:47;36.60;;;28.17;;
9827;SDS011;4953;48.952;9.442;2022-08-19T11:37:14;39.67;;;30.40;;
9827;SDS011;4953;48.952;9.442;2022-08-19T11:39:41;39.07;;;28.73;;
9827;SDS011;4953;48.952;9.442;2022-08-19T11:42:09;40.57;;;30.60;;
9827;SDS011;4953;48.952;9.442;2022-08-19T11:44:53;41.13;;;29.83;;
9827;SDS011;4953;48.952;9.442;2022-08-19T11:47:20;38.27;;;28.63;;
9827;SDS011;4953;48.952;9.442;2022-08-19T11:49:48;38.17;;;28.37;;
9827;SDS011;4953;48.952;9.442;2022-08-19T11:52:15;39.53;;;29.37;;
9827;SDS011;4953;48.952;9.442;2022-08-19T11:54:42;37.10;;;28.70;;
9827;SDS011;4953;48.952;9.442;2022-08-19T11:57:10;33.63;;;26.20;;
9827;SDS011;4953;48.952;9.442;2022-08-19T11:59:36;35.37;;;27.90;;
9827;SDS011;4953;48.952;9.442;2022-08-19T12:02:03;38.27;;;27.67;;
9827;SDS011;4953;48.952;9.442;2022-08-19T12:04:30;37.87;;;27.73;;
9827;SDS011;4953;48.952;9.442;2022-08-19T12:06:57;34.43;;;26.83;;
9827;SDS011;4953;48.952;9.442;2022-08-19T12:09:24;37.63;;;28.97;;
9827;SDS011;4953;48.952;9.442;2022-08-19T12:11:51;31.57;;;25.97;;
9827;SDS011;4953;48.952;9.442;2022-08-19T12:14:19;38.83;;;28.30;;
9827;SDS011;4953;48.952;9.442;2022-08-19T12:16:46;38.03;;;27.70;;
9827;SDS011;4953;48.952;9.442;2022-08-19T12:19:13;35.20;;;26.97;;
9827;SDS011;4953;48.952;9.442;2022-08-19T12:21:40;33.93;;;28.07;;
9827;SDS011;4953;48.952;9.442;2022-08-19T12:24:07;34.63;;;26.80;;
9827;SDS011;4953;48.952;9.442;2022-08-19T12:26:34;34.07;;;28.30;;
9827;SDS011;4953;48.952;9.442;2022-08-19T12:29:01;36.10;;;28.00;;
9827;SDS011;4953;48.952;9.442;2022-08-19T12:31:30;33.70;;;26.67;;
9827;SDS011;4953;48.952;9.442;2022-08-19T12:33:57;38.73;;;28.93;;
9827;SDS011;4953;48.952;9.442;2022-08-19T12:36:27;33.93;;;26.47;;
9827;SDS011;4953;48.952;9.442;2022-08-19T12:38:54;36.80;;;25.40;;
9827;SDS011;4953;48.952;9.442;2022-08-19T12:41:23;32.43;;;25.00;;
9827;SDS011;4953;48.952;9.442;2022-08-19T12:43:50;36.73;;;26.87;;
9827;SDS011;4953;48.952;9.442;2022-08-19T12:46:17;33.33;;;26.37;;
9827;SDS011;4953;48.952;9.442;2022-08-19T12:48:46;33.90;;;25.50;;
9827;SDS011;4953;48.952;9.442;2022-08-19T12:51:14;30.10;;;24.57;;
9827;SDS011;4953;48.952;9.442;2022-08-19T12:53:43;30.77;;;25.80;;
9827;SDS011;4953;48.952;9.442;2022-08-19T12:56:10;32.13;;;25.43;;
9827;SDS011;4953;48.952;9.442;2022-08-19T12:58:39;34.00;;;25.90;;
9827;SDS011;4953;48.952;9.442;2022-08-19T13:01:08;28.57;;;23.73;;
9827;SDS011;4953;48.952;9.442;2022-08-19T13:03:36;29.03;;;22.73;;
9827;SDS011;4953;48.952;9.442;2022-08-19T13:06:05;27.40;;;23.13;;
9827;SDS011;4953;48.952;9.442;2022-08-19T13:08:32;28.77;;;22.80;;
9827;SDS011;4953;48.952;9.442;2022-08-19T13:11:06;30.20;;;22.93;;
9827;SDS011;4953;48.952;9.442;2022-08-19T13:13:35;29.50;;;22.70;;
9827;SDS011;4953;48.952;9.442;2022-08-19T13:16:05;26.37;;;22.30;;
9827;SDS011;4953;48.952;9.442;2022-08-19T13:18:33;28.07;;;23.37;;
9827;SDS011;4953;48.952;9.442;2022-08-19T13:21:01;25.13;;;22.43;;
9827;SDS011;4953;48.952;9.442;2022-08-19T13:23:30;30.97;;;24.30;;
9827;SDS011;4953;48.952;9.442;2022-08-19T13:25:57;28.67;;;22.83;;
9827;SDS011;4953;48.952;9.442;2022-08-19T13:28:25;31.03;;;24.03;;
9827;SDS011;4953;48.952;9.442;2022-08-19T13:31:14;28.13;;;23.50;;
9827;SDS011;4953;48.952;9.442;2022-08-19T13:33:58;27.27;;;23.20;;
9827;SDS011;4953;48.952;9.442;2022-08-19T13:36:25;25.03;;;21.13;;
9827;SDS011;4953;48.952;9.442;2022-08-19T13:38:53;26.13;;;20.37;;
9827;SDS011;4953;48.952;9.442;2022-08-19T13:41:21;24.73;;;20.10;;
9827;SDS011;4953;48.952;9.442;2022-08-19T13:43:48;26.73;;;23.27;;
9827;SDS011;4953;48.952;9.442;2022-08-19T13:46:15;26.60;;;21.90;;
9827;SDS011;4953;48.952;9.442;2022-08-19T13:48:42;25.73;;;21.77;;
9827;SDS011;4953;48.952;9.442;2022-08-19T13:51:09;26.27;;;21.90;;
9827;SDS011;4953;48.952;9.442;2022-08-19T13:53:36;24.40;;;19.73;;
9827;SDS011;4953;48.952;9.442;2022-08-19T13:56:06;27.73;;;21.67;;
9827;SDS011;4953;48.952;9.442;2022-08-19T13:58:33;25.37;;;22.47;;
9827;SDS011;4953;48.952;9.442;2022-08-19T14:01:00;29.20;;;23.43;;
9827;SDS011;4953;48.952;9.442;2022-08-19T14:03:27;26.20;;;21.93;;
9827;SDS011;4953;48.952;9.442;2022-08-19T14:05:54;28.80;;;22.67;;
9827;SDS011;4953;48.952;9.442;2022-08-19T14:08:21;29.97;;;21.23;;
9827;SDS011;4953;48.952;9.442;2022-08-19T14:10:48;25.47;;;21.83;;
9827;SDS011;4953;48.952;9.442;2022-08-19T14:13:18;23.93;;;20.73;;
9827;SDS011;4953;48.952;9.442;2022-08-19T14:15:46;26.70;;;20.77;;
9827;SDS011;4953;48.952;9.442;2022-08-19T14:18:13;30.60;;;20.73;;
9827;SDS011;4953;48.952;9.442;2022-08-19T14:20:41;23.63;;;20.10;;
9827;SDS011;4953;48.952;9.442;2022-08-19T14:23:08;23.30;;;18.73;;
9827;SDS011;4953;48.952;9.442;2022-08-19T14:25:35;26.67;;;21.13;;
9827;SDS011;4953;48.952;9.442;2022-08-19T14:28:02;28.27;;;21.63;;
9827;SDS011;4953;48.952;9.442;2022-08-19T14:30:31;24.33;;;19.13;;
9827;SDS011;4953;48.952;9.442;2022-08-19T14:33:02;25.50;;;20.63;;
9827;SDS011;4953;48.952;9.442;2022-08-19T14:35:30;26.23;;;21.83;;
9827;SDS011;4953;48.952;9.442;2022-08-19T14:37:59;25.03;;;20.40;;
9827;SDS011;4953;48.952;9.442;2022-08-19T14:40:28;24.30;;;21.70;;
9827;SDS011;4953;48.952;9.442;2022-08-19T14:42:57;28.90;;;21.47;;
9827;SDS011;4953;48.952;9.442;2022-08-19T14:45:29;30.43;;;23.00;;
9827;SDS011;4953;48.952;9.442;2022-08-19T14:47:59;26.33;;;20.53;;
9827;SDS011;4953;48.952;9.442;2022-08-19T14:50:26;23.37;;;20.53;;
9827;SDS011;4953;48.952;9.442;2022-08-19T14:52:57;24.93;;;21.47;;
9827;SDS011;4953;48.952;9.442;2022-08-19T14:55:26;26.23;;;21.13;;
9827;SDS011;4953;48.952;9.442;2022-08-19T14:57:53;26.10;;;21.80;;
9827;SDS011;4953;48.952;9.442;2022-08-19T15:00:19;27.30;;;22.60;;
9827;SDS011;4953;48.952;9.442;2022-08-19T15:02:49;25.80;;;22.77;;
9827;SDS011;4953;48.952;9.442;2022-08-19T15:05:16;26.70;;;22.40;;
9827;SDS011;4953;48.952;9.442;2022-08-19T15:07:43;24.67;;;21.57;;
9827;SDS011;4953;48.952;9.442;2022-08-19T15:10:10;26.33;;;22.23;;
9827;SDS011;4953;48.952;9.442;2022-08-19T15:12:38;26.80;;;21.43;;
9827;SDS011;4953;48.952;9.442;2022-08-19T15:15:06;26.60;;;22.57;;
9827;SDS011;4953;48.952;9.442;2022-08-19T15:17:34;24.43;;;21.10;;
9827;SDS011;4953;48.952;9.442;2022-08-19T15:20:04;24.73;;;21.70;;
9827;SDS011;4953;48.952;9.442;2022-08-19T15:22:31;27.83;;;20.70;;
9827;SDS011;4953;48.952;9.442;2022-08-19T15:24:59;23.07;;;19.07;;
9827;SDS011;4953;48.952;9.442;2022-08-19T15:27:26;22.90;;;19.10;;
9827;SDS011;4953;48.952;9.442;2022-08-19T15:29:53;22.83;;;19.40;;
9827;SDS011;4953;48.952;9.442;2022-08-19T15:32:21;26.80;;;19.63;;
9827;SDS011;4953;48.952;9.442;2022-08-19T15:34:50;23.13;;;20.63;;
9827;SDS011;4953;48.952;9.442;2022-08-19T15:37:19;21.07;;;18.70;;
9827;SDS011;4953;48.952;9.442;2022-08-19T15:39:48;22.97;;;20.27;;
9827;SDS011;4953;48.952;9.442;2022-08-19T15:42:15;25.40;;;20.17;;
9827;SDS011;4953;48.952;9.442;2022-08-19T15:44:41;23.70;;;20.83;;
9827;SDS011;4953;48.952;9.442;2022-08-19T15:47:08;23.07;;;20.57;;
9827;SDS011;4953;48.952;9.442;2022-08-19T15:49:35;24.03;;;21.10;;
9827;SDS011;4953;48.952;9.442;2022-08-19T15:52:02;23.37;;;19.90;;
9827;SDS011;4953;48.952;9.442;2022-08-19T15:54:33;21.10;;;18.83;;
9827;SDS011;4953;48.952;9.442;2022-08-19T15:57:00;23.10;;;19.20;;
9827;SDS011;4953;48.952;9.442;2022-08-19T15:59:44;30.03;;;25.00;;
9827;SDS011;4953;48.952;9.442;2022-08-19T16:02:29;23.37;;;18.77;;
9827;SDS011;4953;48.952;9.442;2022-08-19T16:05:14;21.40;;;18.63;;
9827;SDS011;4953;48.952;9.442;2022-08-19T16:08:00;22.73;;;20.13;;
9827;SDS011;4953;48.952;9.442;2022-08-19T16:10:28;20.70;;;18.50;;
9827;SDS011;4953;48.952;9.442;2022-08-19T16:12:56;21.23;;;18.03;;
9827;SDS011;4953;48.952;9.442;2022-08-19T16:15:23;22.30;;;19.00;;
9827;SDS011;4953;48.952;9.442;2022-08-19T16:17:51;21.60;;;17.77;;
9827;SDS011;4953;48.952;9.442;2022-08-19T16:20:19;20.10;;;17.80;;
9827;SDS011;4953;48.952;9.442;2022-08-19T16:22:46;22.30;;;19.87;;
9827;SDS011;4953;48.952;9.442;2022-08-19T16:25:13;20.80;;;18.00;;
9827;SDS011;4953;48.952;9.442;2022-08-19T16:27:42;21.23;;;19.03;;
9827;SDS011;4953;48.952;9.442;2022-08-19T16:30:09;20.03;;;17.90;;
9827;SDS011;4953;48.952;9.442;2022-08-19T16:32:41;22.47;;;18.50;;
9827;SDS011;4953;48.952;9.442;2022-08-19T16:35:08;19.67;;;17.20;;
9827;SDS011;4953;48.952;9.442;2022-08-19T16:37:35;24.87;;;20.10;;
9827;SDS011;4953;48.952;9.442;2022-08-19T16:40:02;22.20;;;18.83;;
9827;SDS011;4953;48.952;9.442;2022-08-19T16:42:30;20.60;;;17.97;;
9827;SDS011;4953;48.952;9.442;2022-08-19T16:44:59;22.40;;;18.23;;
9827;SDS011;4953;48.952;9.442;2022-08-19T16:47:27;23.70;;;19.57;;
9827;SDS011;4953;48.952;9.442;2022-08-19T16:49:54;23.17;;;20.47;;
9827;SDS011;4953;48.952;9.442;2022-08-19T16:52:21;25.20;;;19.93;;
9827;SDS011;4953;48.952;9.442;2022-08-19T16:54:50;25.63;;;20.20;;
9827;SDS011;4953;48.952;9.442;2022-08-19T16:57:17;23.57;;;20.77;;
9827;SDS011;4953;48.952;9.442;2022-08-19T16:59:44;26.83;;;23.27;;
9827;SDS011;4953;48.952;9.442;2022-08-19T17:02:12;25.70;;;21.80;;
9827;SDS011;4953;48.952;9.442;2022-08-19T17:04:39;23.97;;;20.50;;
9827;SDS011;4953;48.952;9.442;2022-08-19T17:07:07;24.40;;;19.50;;
9827;SDS011;4953;48.952;9.442;2022-08-19T17:09:35;23.23;;;20.10;;
9827;SDS011;4953;48.952;9.442;2022-08-19T17:12:02;24.10;;;20.70;;
9827;SDS011;4953;48.952;9.442;2022-08-19T17:14:29;23.30;;;20.80;;
9827;SDS011;4953;48.952;9.442;2022-08-19T17:16:56;23.07;;;20.50;;
9827;SDS011;4953;48.952;9.442;2022-08-19T17:19:24;23.37;;;20.87;;
9827;SDS011;4953;48.952;9.442;2022-08-19T17:21:51;24.87;;;20.37;;
9827;SDS011;4953;48.952;9.442;2022-08-19T17:24:18;23.40;;;20.47;;
9827;SDS011;4953;48.952;9.442;2022-08-19T17:26:45;24.73;;;21.90;;
9827;SDS011;4953;48.952;9.442;2022-08-19T17:29:12;27.60;;;21.83;;
9827;SDS011;4953;48.952;9.442;2022-08-19T17:31:38;22.43;;;20.03;;
9827;SDS011;4953;48.952;9.442;2022-08-19T17:34:05;25.43;;;22.73;;
9827;SDS011;4953;48.952;9.442;2022-08-19T17:36:34;26.57;;;21.90;;
9827;SDS011;4953;48.952;9.442;2022-08-19T17:39:03;26.33;;;22.20;;
9827;SDS011;4953;48.952;9.442;2022-08-19T17:41:30;24.30;;;21.70;;
9827;SDS011;4953;48.952;9.442;2022-08-19T17:43:58;24.80;;;21.80;;
9827;SDS011;4953;48.952;9.442;2022-08-19T17:46:25;25.90;;;21.70;;
9827;SDS011;4953;48.952;9.442;2022-08-19T17:48:54;26.23;;;21.47;;
9827;SDS011;4953;48.952;9.442;2022-08-19T17:51:23;23.07;;;20.57;;
9827;SDS011;4953;48.952;9.442;2022-08-19T17:54:07;28.80;;;22.77;;
9827;SDS011;4953;48.952;9.442;2022-08-19T17:56:35;26.57;;;21.73;;
9827;SDS011;4953;48.952;9.442;2022-08-19T17:59:03;26.90;;;21.67;;
9827;SDS011;4953;48.952;9.442;2022-08-19T18:01:30;27.43;;;23.07;;
9827;SDS011;4953;48.952;9.442;2022-08-19T18:03:57;27.30;;;22.00;;
9827;SDS011;4953;48.952;9.442;2022-08-19T18:06:24;24.73;;;22.00;;
9827;SDS011;4953;48.952;9.442;2022-08-19T18:08:50;25.40;;;22.67;;
9827;SDS011;4953;48.952;9.442;2022-08-19T18:11:22;26.03;;;23.17;;
9827;SDS011;4953;48.952;9.442;2022-08-19T18:13:49;24.30;;;20.90;;
9827;SDS011;4953;48.952;9.442;2022-08-19T18:16:16;23.83;;;21.30;;
9827;SDS011;4953;48.952;9.442;2022-08-19T18:18:44;25.90;;;21.07;;
9827;SDS011;4953;48.952;9.442;2022-08-19T18:21:11;24.77;;;22.17;;
9827;SDS011;4953;48.952;9.442;2022-08-19T18:23:39;24.60;;;21.77;;
9827;SDS011;4953;48.952;9.442;2022-08-19T18:26:06;23.57;;;20.87;;
9827;SDS011;4953;48.952;9.442;2022-08-19T18:28:34;23.87;;;20.60;;
9827;SDS011;4953;48.952;9.442;2022-08-19T18:31:03;23.40;;;20.90;;
9827;SDS011;4953;48.952;9.442;2022-08-19T18:33:31;22.83;;;19.77;;
9827;SDS011;4953;48.952;9.442;2022-08-19T18:35:58;24.77;;;20.83;;
9827;SDS011;4953;48.952;9.442;2022-08-19T18:38:25;24.23;;;20.23;;
9827;SDS011;4953;48.952;9.442;2022-08-19T18:41:09;24.10;;;20.30;;
9827;SDS011;4953;48.952;9.442;2022-08-19T18:43:55;22.60;;;19.83;;
9827;SDS011;4953;48.952;9.442;2022-08-19T18:46:39;21.60;;;19.30;;
9827;SDS011;4953;48.952;9.442;2022-08-19T18:49:24;25.33;;;21.20;;
9827;SDS011;4953;48.952;9.442;2022-08-19T18:51:52;23.07;;;20.60;;
9827;SDS011;4953;48.952;9.442;2022-08-19T18:54:20;25.07;;;20.30;;
9827;SDS011;4953;48.952;9.442;2022-08-19T18:56:47;23.40;;;20.20;;
9827;SDS011;4953;48.952;9.442;2022-08-19T18:59:21;27.50;;;22.17;;